createdAt,value
2023-05-06T00:00:40.970Z,18.00
2023-05-06T00:05:43.774Z,17.97
2023-05-06T00:10:45.702Z,17.96
2023-05-06T00:15:47.001Z,17.88
2023-05-06T00:20:48.548Z,17.86
2023-05-06T00:25:49.884Z,17.84
2023-05-06T00:30:51.231Z,17.80
2023-05-06T00:35:52.824Z,17.73
2023-05-06T00:40:54.127Z,17.74
2023-05-06T00:45:55.762Z,17.60
2023-05-06T00:50:57.185Z,17.59
2023-05-06T00:55:58.579Z,17.49
2023-05-06T01:01:00.005Z,17.49
2023-05-06T01:06:18.375Z,17.41
2023-05-06T01:11:29.622Z,17.32
2023-05-06T01:16:32.299Z,17.28
2023-05-06T01:21:35.097Z,17.25
2023-05-06T01:26:36.456Z,17.16
2023-05-06T01:31:50.586Z,17.09
2023-05-06T01:36:58.347Z,17.07
2023-05-06T01:42:02.464Z,16.92
2023-05-06T01:47:05.838Z,16.94
2023-05-06T01:52:07.217Z,16.90
2023-05-06T01:57:08.498Z,16.82
2023-05-06T02:02:09.978Z,16.80
2023-05-06T02:07:11.399Z,16.71
2023-05-06T02:12:15.000Z,16.61
2023-05-06T02:17:16.346Z,16.50
2023-05-06T02:22:17.664Z,16.39
2023-05-06T02:27:19.060Z,16.34
2023-05-06T02:32:20.416Z,16.28
2023-05-06T02:37:21.681Z,16.14
2023-05-06T02:42:22.983Z,16.09
2023-05-06T02:47:24.672Z,16.02
2023-05-06T02:52:25.966Z,15.97
2023-05-06T02:57:27.485Z,15.92
2023-05-06T03:02:28.812Z,15.78
2023-05-06T03:07:30.645Z,15.79
2023-05-06T03:12:32.060Z,15.61
2023-05-06T03:17:33.470Z,15.72
2023-05-06T03:22:35.077Z,15.72
2023-05-06T03:27:36.423Z,15.71
2023-05-06T03:32:38.236Z,15.67
2023-05-06T03:37:40.066Z,15.65
2023-05-06T03:42:41.881Z,15.60
2023-05-06T03:47:43.599Z,15.64
2023-05-06T03:52:45.352Z,15.58
2023-05-06T03:57:46.678Z,15.58
2023-05-06T04:02:48.894Z,15.47
2023-05-06T04:07:50.292Z,15.43
2023-05-06T04:12:52.239Z,15.35
2023-05-06T04:17:53.535Z,15.27
2023-05-06T04:22:54.893Z,15.24
2023-05-06T04:27:56.173Z,15.24
2023-05-06T04:32:57.848Z,15.24
2023-05-06T04:37:59.433Z,15.29
2023-05-06T04:43:01.026Z,15.29
2023-05-06T04:48:04.566Z,15.27
2023-05-06T04:53:06.114Z,15.31
2023-05-06T04:58:07.734Z,15.33
2023-05-06T05:03:09.076Z,15.43
2023-05-06T05:08:13.167Z,15.42
2023-05-06T05:13:14.603Z,15.48
2023-05-06T05:18:16.420Z,15.62
2023-05-06T05:23:17.767Z,15.69
2023-05-06T05:28:19.056Z,15.64
2023-05-06T05:33:20.620Z,15.69
2023-05-06T05:38:22.068Z,15.84
2023-05-06T05:43:25.954Z,15.95
2023-05-06T05:48:27.345Z,16.01
2023-05-06T05:53:28.735Z,16.11
2023-05-06T05:58:30.053Z,16.15
2023-05-06T06:03:31.492Z,16.07
2023-05-06T06:08:33.401Z,16.32
2023-05-06T06:13:34.845Z,16.43
2023-05-06T06:18:36.263Z,16.54
2023-05-06T06:23:37.639Z,16.69
2023-05-06T06:28:39.326Z,16.83
2023-05-06T06:33:40.775Z,17.06
2023-05-06T06:38:42.104Z,17.22
2023-05-06T06:43:43.398Z,17.38
2023-05-06T06:48:44.651Z,17.30
2023-05-06T06:53:48.225Z,17.40
2023-05-06T06:58:50.771Z,17.71
2023-05-06T07:03:53.820Z,17.77
2023-05-06T07:08:55.261Z,17.87
2023-05-06T07:13:56.565Z,17.98
2023-05-06T07:18:58.685Z,17.95
2023-05-06T07:24:00.334Z,18.31
2023-05-06T07:29:01.736Z,18.53
2023-05-06T07:34:03.230Z,18.76
2023-05-06T07:39:04.565Z,18.82
2023-05-06T07:44:06.419Z,19.02
2023-05-06T07:49:07.760Z,19.17
2023-05-06T07:54:09.149Z,19.31
2023-05-06T07:59:10.496Z,19.48
2023-05-06T08:04:12.069Z,19.60
2023-05-06T08:09:22.044Z,19.87
2023-05-06T08:14:26.197Z,20.11
2023-05-06T08:19:27.539Z,20.30
2023-05-06T08:24:28.825Z,20.49
2023-05-06T08:29:30.261Z,20.63
2023-05-06T08:34:31.818Z,20.23
2023-05-06T08:39:33.218Z,20.01
2023-05-06T08:44:34.642Z,19.88
2023-05-06T08:49:36.114Z,19.97
2023-05-06T08:54:38.149Z,20.00
2023-05-06T08:59:42.034Z,20.10
2023-05-06T09:04:44.504Z,20.19
2023-05-06T09:09:45.927Z,20.38
2023-05-06T09:14:49.931Z,20.43
2023-05-06T09:19:53.152Z,20.61
2023-05-06T09:24:57.926Z,20.79
2023-05-06T09:30:03.706Z,21.37
2023-05-06T09:35:05.736Z,21.75
2023-05-06T09:40:09.112Z,21.77
2023-05-06T09:45:11.101Z,21.86
2023-05-06T09:50:13.852Z,22.04
2023-05-06T09:55:15.495Z,22.47
2023-05-06T10:00:17.433Z,22.84
2023-05-06T10:05:18.978Z,23.08
2023-05-06T10:10:23.492Z,22.92
2023-05-06T10:15:26.809Z,22.88
2023-05-06T10:20:31.319Z,23.15
2023-05-06T10:25:38.431Z,23.63
2023-05-06T10:30:40.755Z,23.79
2023-05-06T10:35:42.212Z,24.18
2023-05-06T10:40:44.361Z,24.19
2023-05-06T10:46:05.408Z,24.52
2023-05-06T10:51:15.733Z,24.33
2023-05-06T10:56:17.097Z,24.13
2023-05-06T11:01:23.380Z,23.84
2023-05-06T11:06:33.960Z,23.79
2023-05-06T11:11:53.183Z,23.59
2023-05-06T11:16:57.325Z,23.49
2023-05-06T11:22:01.154Z,23.22
2023-05-06T11:27:02.529Z,23.14
2023-05-06T11:32:05.683Z,22.95
2023-05-06T11:37:07.786Z,22.80
2023-05-06T11:42:09.371Z,22.68
2023-05-06T11:47:10.913Z,22.59
2023-05-06T11:52:13.030Z,22.70
2023-05-06T11:57:14.499Z,22.67
2023-05-06T12:02:18.491Z,22.48
2023-05-06T12:07:20.261Z,22.24
2023-05-06T12:12:24.309Z,22.41
2023-05-06T12:17:26.171Z,22.38
2023-05-06T12:22:28.238Z,22.22
2023-05-06T12:27:33.411Z,22.24
2023-05-06T12:32:34.912Z,22.28
2023-05-06T12:37:36.292Z,22.33
2023-05-06T12:42:37.616Z,22.37
2023-05-06T12:47:39.015Z,22.48
2023-05-06T12:52:43.775Z,22.52
2023-05-06T12:57:45.919Z,22.62
2023-05-06T13:02:47.582Z,22.80
2023-05-06T13:07:51.103Z,23.08
2023-05-06T13:12:52.473Z,23.18
2023-05-06T13:17:54.012Z,23.18
2023-05-06T13:22:55.519Z,23.27
2023-05-06T13:27:56.834Z,23.37
2023-05-06T13:32:58.362Z,23.46
2023-05-06T13:37:59.726Z,23.34
2023-05-06T13:43:01.092Z,23.27
2023-05-06T13:48:02.634Z,23.12
2023-05-06T13:53:04.856Z,22.97
2023-05-06T13:58:06.900Z,22.86
2023-05-06T14:03:08.362Z,22.86
2023-05-06T14:08:09.737Z,22.77
2023-05-06T14:13:11.665Z,22.82
2023-05-06T14:18:13.116Z,22.71
2023-05-06T14:23:14.613Z,22.68
2023-05-06T14:28:16.058Z,22.70
2023-05-06T14:33:17.446Z,22.68
2023-05-06T14:38:19.456Z,22.62
2023-05-06T14:43:20.961Z,22.52
2023-05-06T14:48:22.328Z,22.54
2023-05-06T14:53:24.095Z,22.53
2023-05-06T14:58:25.419Z,22.41
2023-05-06T15:03:27.339Z,22.36
2023-05-06T15:08:28.731Z,22.24
2023-05-06T15:13:30.174Z,22.24
2023-05-06T15:18:31.720Z,22.14
2023-05-06T15:23:33.127Z,21.93
2023-05-06T15:28:34.410Z,21.78
2023-05-06T15:33:35.957Z,21.79
2023-05-06T15:39:03.720Z,21.78
2023-05-06T15:44:06.074Z,21.73
2023-05-06T15:54:12.157Z,21.80
2023-05-06T15:59:13.536Z,21.68
2023-05-06T16:04:15.023Z,21.59
2023-05-06T16:09:16.555Z,21.60
2023-05-06T16:14:17.846Z,21.63
2023-05-06T16:19:19.150Z,21.65
2023-05-06T16:24:20.666Z,21.64
2023-05-06T16:29:22.369Z,21.56
2023-05-06T16:34:24.342Z,21.51
2023-05-06T16:39:25.911Z,21.52
2023-05-06T16:44:28.937Z,21.50
2023-05-06T16:49:30.194Z,21.50
2023-05-06T16:54:31.533Z,21.37
2023-05-06T16:59:33.320Z,21.35
2023-05-06T17:04:34.684Z,21.34
2023-05-06T17:09:35.963Z,21.35
2023-05-06T17:14:37.285Z,21.16
2023-05-06T17:19:38.609Z,21.16
2023-05-06T17:24:40.002Z,21.19
2023-05-06T17:29:42.124Z,21.35
2023-05-06T17:34:43.646Z,21.40
2023-05-06T17:39:46.170Z,21.31
2023-05-06T17:44:47.668Z,21.11
2023-05-06T17:49:52.369Z,20.98
2023-05-06T17:55:06.127Z,20.95
2023-05-06T18:00:13.696Z,20.93
2023-05-06T18:05:16.471Z,20.86
2023-05-06T18:10:19.006Z,20.81
2023-05-06T18:15:20.450Z,20.79
2023-05-06T18:20:21.863Z,20.63
2023-05-06T18:25:23.343Z,20.61
2023-05-06T18:30:24.805Z,20.61
2023-05-06T18:35:26.268Z,20.58
2023-05-06T18:40:27.707Z,20.70
2023-05-06T18:45:29.461Z,20.78
2023-05-06T18:50:30.985Z,20.87
2023-05-06T18:55:32.899Z,20.86
2023-05-06T19:00:34.668Z,20.78
2023-05-06T19:05:38.067Z,20.86
2023-05-06T19:10:39.883Z,20.88
2023-05-06T19:15:42.079Z,20.89
2023-05-06T19:20:43.674Z,20.86
2023-05-06T19:25:45.086Z,20.82
2023-05-06T19:30:48.071Z,20.62
2023-05-06T19:35:49.859Z,20.55
2023-05-06T19:40:51.217Z,20.49
2023-05-06T19:45:52.582Z,20.39
2023-05-06T19:50:54.078Z,20.34
2023-05-06T19:55:55.981Z,20.32
2023-05-06T20:00:57.235Z,20.25
2023-05-06T20:05:59.005Z,20.17
2023-05-06T20:11:00.354Z,20.15
2023-05-06T20:16:01.905Z,20.03
2023-05-06T20:21:03.760Z,19.99
2023-05-06T20:26:05.059Z,19.87
2023-05-06T20:31:06.553Z,19.87
2023-05-06T20:36:08.614Z,19.65
2023-05-06T20:41:09.954Z,19.69
2023-05-06T20:46:11.373Z,19.69
2023-05-06T20:51:13.481Z,19.68
2023-05-06T20:56:20.744Z,19.55
2023-05-06T21:01:23.674Z,19.55
2023-05-06T21:06:25.270Z,19.53
2023-05-06T21:11:28.892Z,19.48
2023-05-06T21:16:30.424Z,19.42
2023-05-06T21:21:32.472Z,19.42
2023-05-06T21:26:33.802Z,19.41
2023-05-06T21:31:36.593Z,19.32
2023-05-06T21:36:38.854Z,19.29
2023-05-06T21:41:40.791Z,19.23
2023-05-06T21:46:42.158Z,19.15
2023-05-06T21:51:43.456Z,19.14
2023-05-06T21:56:44.855Z,18.99
2023-05-06T22:01:46.232Z,18.98
2023-05-06T22:06:47.520Z,18.93
2023-05-06T22:11:49.809Z,18.82
2023-05-06T22:16:52.537Z,18.81
2023-05-06T22:21:54.384Z,18.85
2023-05-06T22:26:55.706Z,18.79
2023-05-06T22:31:57.087Z,18.70
2023-05-06T22:37:00.480Z,18.73
2023-05-06T22:42:02.333Z,18.64
2023-05-06T22:47:03.741Z,18.62
2023-05-06T22:52:05.572Z,18.64
2023-05-06T22:57:07.038Z,18.61
2023-05-06T23:02:08.359Z,18.48
2023-05-06T23:07:10.183Z,18.37
2023-05-06T23:12:11.541Z,18.31
2023-05-06T23:17:13.533Z,18.38
2023-05-06T23:22:15.130Z,18.43
2023-05-06T23:27:16.493Z,18.35
2023-05-06T23:32:18.157Z,18.31
2023-05-06T23:37:19.548Z,18.32
2023-05-06T23:42:21.592Z,18.32
2023-05-06T23:47:24.385Z,18.33
2023-05-06T23:52:25.914Z,18.29
2023-05-06T23:57:27.243Z,18.29
